createdAt,value
2023-10-26T00:00:40.702Z,77.76
2023-10-26T00:03:08.568Z,77.48
2023-10-26T00:05:35.189Z,78.56
2023-10-26T00:08:01.742Z,77.80
2023-10-26T00:10:28.466Z,78.44
2023-10-26T00:12:54.954Z,77.85
2023-10-26T00:15:21.507Z,77.85
2023-10-26T00:17:48.057Z,77.51
2023-10-26T00:20:14.893Z,77.59
2023-10-26T00:22:41.336Z,77.20
2023-10-26T00:25:08.960Z,77.20
2023-10-26T00:27:41.566Z,77.33
2023-10-26T00:30:10.681Z,76.74
2023-10-26T00:32:37.460Z,77.50
2023-10-26T00:35:05.109Z,77.14
2023-10-26T00:37:33.437Z,76.87
2023-10-26T00:39:59.993Z,77.38
2023-10-26T00:42:27.056Z,76.94
2023-10-26T00:44:57.588Z,77.22
2023-10-26T00:47:26.872Z,77.99
2023-10-26T00:49:57.318Z,78.53
2023-10-26T00:52:24.384Z,78.15
2023-10-26T00:54:52.948Z,78.25
2023-10-26T00:57:22.483Z,77.95
2023-10-26T00:59:50.175Z,77.29
2023-10-26T01:02:17.588Z,77.15
2023-10-26T01:04:45.112Z,77.79
2023-10-26T01:07:11.747Z,77.56
2023-10-26T01:09:38.512Z,77.54
2023-10-26T01:12:05.810Z,77.65
2023-10-26T01:14:33.668Z,78.33
2023-10-26T01:17:01.447Z,78.95
2023-10-26T01:19:44.286Z,78.83
2023-10-26T01:22:11.382Z,78.40
2023-10-26T01:24:38.354Z,78.79
2023-10-26T01:27:05.714Z,78.63
2023-10-26T01:29:33.082Z,79.12
2023-10-26T01:32:01.526Z,79.54
2023-10-26T01:34:28.088Z,79.28
2023-10-26T01:36:56.587Z,79.83
2023-10-26T01:39:23.160Z,79.13
2023-10-26T01:41:49.773Z,79.25
2023-10-26T01:44:19.819Z,79.76
2023-10-26T01:46:46.597Z,80.16
2023-10-26T01:49:13.140Z,80.13
2023-10-26T01:51:39.703Z,79.83
2023-10-26T01:54:06.359Z,79.48
2023-10-26T01:56:32.862Z,80.26
2023-10-26T01:58:59.551Z,79.42
2023-10-26T02:01:25.995Z,79.52
2023-10-26T02:03:55.298Z,80.43
2023-10-26T02:06:22.141Z,80.27
2023-10-26T02:08:49.435Z,80.14
2023-10-26T02:11:15.966Z,79.83
2023-10-26T02:13:42.413Z,79.23
2023-10-26T02:16:09.008Z,80.01
2023-10-26T02:18:36.025Z,79.34
2023-10-26T02:21:03.066Z,79.37
2023-10-26T02:23:30.040Z,78.49
2023-10-26T02:25:57.354Z,79.10
2023-10-26T02:28:24.664Z,78.84
2023-10-26T02:30:51.432Z,79.19
2023-10-26T02:33:17.958Z,79.07
2023-10-26T02:35:44.478Z,79.68
2023-10-26T02:38:11.062Z,79.60
2023-10-26T02:40:38.040Z,78.75
2023-10-26T02:43:06.466Z,79.10
2023-10-26T02:45:33.090Z,78.46
2023-10-26T02:48:00.825Z,77.72
2023-10-26T02:50:36.358Z,78.10
2023-10-26T02:53:03.460Z,77.81
2023-10-26T02:55:29.961Z,78.46
2023-10-26T02:57:58.100Z,78.39
2023-10-26T03:00:28.142Z,77.95
2023-10-26T03:02:56.950Z,77.47
2023-10-26T03:05:23.488Z,77.93
2023-10-26T03:07:49.924Z,77.47
2023-10-26T03:10:18.241Z,77.01
2023-10-26T03:12:48.066Z,78.28
2023-10-26T03:15:14.651Z,78.23
2023-10-26T03:20:30.636Z,78.91
2023-10-26T03:22:57.115Z,79.54
2023-10-26T03:25:23.635Z,79.43
2023-10-26T03:27:50.326Z,79.55
2023-10-26T03:30:18.913Z,79.66
2023-10-26T03:32:46.456Z,80.72
2023-10-26T03:35:13.239Z,80.32
2023-10-26T03:37:39.729Z,81.59
2023-10-26T03:40:06.958Z,81.51
2023-10-26T03:42:33.725Z,81.03
2023-10-26T03:45:01.823Z,80.85
2023-10-26T03:47:30.621Z,80.36
2023-10-26T03:50:08.417Z,80.18
2023-10-26T03:52:35.186Z,79.64
2023-10-26T03:55:01.743Z,79.81
2023-10-26T03:57:29.275Z,80.75
2023-10-26T03:59:57.565Z,80.18
2023-10-26T04:02:24.170Z,80.24
2023-10-26T04:04:51.623Z,79.84
2023-10-26T04:07:19.629Z,79.71
2023-10-26T04:09:46.609Z,78.49
2023-10-26T04:12:13.430Z,78.69
2023-10-26T04:14:42.566Z,78.80
2023-10-26T04:17:09.419Z,78.96
2023-10-26T04:19:35.987Z,78.64
2023-10-26T04:22:03.347Z,78.67
2023-10-26T04:24:30.563Z,78.76
2023-10-26T04:26:57.111Z,78.93
2023-10-26T04:29:23.910Z,78.47
2023-10-26T04:31:50.523Z,78.97
2023-10-26T04:34:17.909Z,78.03
2023-10-26T04:36:44.900Z,78.97
2023-10-26T04:39:14.128Z,78.97
2023-10-26T04:41:43.697Z,78.96
2023-10-26T04:44:10.609Z,78.45
2023-10-26T04:46:37.170Z,78.39
2023-10-26T04:49:04.974Z,77.69
2023-10-26T04:51:33.523Z,78.52
2023-10-26T04:54:00.148Z,78.18
2023-10-26T04:56:26.609Z,78.45
2023-10-26T04:58:55.725Z,78.04
2023-10-26T05:01:22.267Z,78.46
2023-10-26T05:03:52.030Z,79.02
2023-10-26T05:06:18.957Z,78.83
2023-10-26T05:08:52.061Z,79.13
2023-10-26T05:11:21.910Z,79.29
2023-10-26T05:13:49.974Z,78.69
2023-10-26T05:18:58.801Z,77.38
2023-10-26T05:21:25.283Z,78.98
2023-10-26T05:23:52.086Z,78.64
2023-10-26T05:26:18.754Z,78.30
2023-10-26T05:28:45.975Z,79.00
2023-10-26T05:31:12.527Z,79.20
2023-10-26T05:33:40.633Z,78.45
2023-10-26T05:36:07.675Z,77.61
2023-10-26T05:38:34.131Z,77.63
2023-10-26T05:41:00.982Z,77.76
2023-10-26T05:43:27.505Z,77.46
2023-10-26T05:45:58.387Z,78.21
2023-10-26T05:48:25.261Z,78.63
2023-10-26T05:50:51.854Z,78.81
2023-10-26T05:53:18.551Z,78.08
2023-10-26T05:55:55.637Z,78.67
2023-10-26T05:58:22.100Z,78.89
2023-10-26T06:00:48.571Z,78.54
2023-10-26T06:03:15.241Z,79.06
2023-10-26T06:05:41.670Z,79.48
2023-10-26T06:08:08.112Z,79.39
2023-10-26T06:10:35.785Z,79.42
2023-10-26T06:13:04.036Z,79.01
2023-10-26T06:15:30.498Z,78.98
2023-10-26T06:17:57.055Z,79.53
2023-10-26T06:20:28.789Z,79.68
2023-10-26T06:22:55.962Z,79.02
2023-10-26T06:25:22.403Z,78.54
2023-10-26T06:27:49.048Z,79.03
2023-10-26T06:30:18.608Z,78.94
2023-10-26T06:32:45.320Z,78.44
2023-10-26T06:35:11.843Z,79.67
2023-10-26T06:37:38.636Z,79.23
2023-10-26T06:40:08.170Z,79.84
2023-10-26T06:42:34.774Z,80.54
2023-10-26T06:45:01.425Z,80.76
2023-10-26T06:47:27.948Z,81.49
2023-10-26T06:49:54.455Z,81.04
2023-10-26T06:52:20.926Z,81.40
2023-10-26T06:54:49.542Z,81.76
2023-10-26T06:57:16.579Z,82.16
2023-10-26T06:59:43.243Z,83.04
2023-10-26T07:02:13.792Z,82.21
2023-10-26T07:04:40.445Z,83.35
2023-10-26T07:07:07.252Z,82.53
2023-10-26T07:09:33.797Z,82.55
2023-10-26T07:12:00.466Z,82.27
2023-10-26T07:14:27.033Z,81.88
2023-10-26T07:16:53.499Z,80.96
2023-10-26T07:19:19.956Z,80.81
2023-10-26T07:21:46.448Z,81.29
2023-10-26T07:24:13.084Z,81.01
2023-10-26T07:26:39.590Z,81.40
2023-10-26T07:29:06.226Z,81.29
2023-10-26T07:31:32.740Z,81.53
2023-10-26T07:33:59.234Z,82.64
2023-10-26T07:36:27.805Z,82.26
2023-10-26T07:39:45.879Z,82.19
2023-10-26T07:42:07.132Z,83.34
2023-10-26T07:44:32.292Z,82.34
2023-10-26T07:46:58.770Z,82.32
2023-10-26T07:49:25.398Z,82.03
2023-10-26T07:51:52.350Z,81.82
2023-10-26T07:54:19.170Z,81.40
2023-10-26T07:56:45.650Z,82.46
2023-10-26T07:59:12.172Z,81.84
2023-10-26T08:01:38.654Z,81.79
2023-10-26T08:04:05.425Z,80.75
2023-10-26T08:06:31.885Z,81.07
2023-10-26T08:08:59.837Z,80.78
2023-10-26T08:11:26.251Z,79.94
2023-10-26T08:13:53.124Z,79.35
2023-10-26T08:16:40.988Z,79.83
2023-10-26T08:19:06.690Z,80.78
2023-10-26T08:21:35.295Z,80.04
2023-10-26T08:24:02.006Z,80.17
2023-10-26T08:26:28.526Z,79.87
2023-10-26T08:29:10.527Z,79.63
2023-10-26T08:31:42.085Z,80.19
2023-10-26T08:34:10.154Z,80.99
2023-10-26T08:36:37.444Z,80.28
2023-10-26T08:39:05.752Z,79.91
2023-10-26T08:41:36.885Z,80.75
2023-10-26T08:44:05.049Z,81.22
2023-10-26T08:46:32.355Z,80.51
2023-10-26T08:49:01.261Z,79.90
2023-10-26T08:51:28.778Z,80.52
2023-10-26T08:53:58.418Z,80.11
2023-10-26T08:56:25.164Z,80.14
2023-10-26T08:58:56.466Z,79.25
2023-10-26T09:01:23.231Z,79.93
2023-10-26T09:03:49.831Z,79.66
2023-10-26T09:06:16.399Z,77.82
2023-10-26T09:08:43.920Z,78.37
2023-10-26T09:11:23.650Z,78.18
2023-10-26T09:13:51.344Z,77.99
2023-10-26T09:16:17.945Z,78.44
2023-10-26T09:18:51.612Z,77.45
2023-10-26T09:21:18.708Z,77.30
2023-10-26T09:23:46.383Z,77.09
2023-10-26T09:26:13.001Z,76.53
2023-10-26T09:28:55.942Z,76.41
2023-10-26T09:31:37.899Z,76.21
2023-10-26T09:34:11.968Z,77.24
2023-10-26T09:36:39.143Z,77.66
2023-10-26T09:39:09.796Z,78.17
2023-10-26T09:41:38.343Z,76.75
2023-10-26T09:44:04.907Z,78.06
2023-10-26T09:46:33.079Z,77.00
2023-10-26T09:48:59.685Z,76.27
2023-10-26T09:51:26.216Z,75.32
2023-10-26T09:53:53.684Z,76.00
2023-10-26T09:56:24.048Z,77.58
2023-10-26T09:58:53.164Z,78.05
2023-10-26T10:01:39.113Z,77.60
2023-10-26T10:04:07.476Z,78.29
2023-10-26T10:06:54.254Z,78.85
2023-10-26T10:09:26.344Z,78.18
2023-10-26T10:12:04.926Z,78.29
2023-10-26T10:14:49.864Z,79.18
2023-10-26T10:17:17.390Z,77.89
2023-10-26T10:19:47.186Z,79.41
2023-10-26T10:22:35.598Z,79.78
2023-10-26T10:25:04.158Z,79.54
2023-10-26T10:27:32.466Z,78.87
2023-10-26T10:30:15.321Z,78.45
2023-10-26T10:32:48.085Z,79.56
2023-10-26T10:35:39.072Z,79.46
2023-10-26T10:38:14.795Z,80.41
2023-10-26T10:40:42.476Z,78.65
2023-10-26T10:43:09.862Z,80.22
2023-10-26T10:45:36.420Z,79.87
2023-10-26T10:48:05.902Z,80.10
2023-10-26T10:50:32.603Z,79.13
2023-10-26T10:52:59.121Z,80.08
2023-10-26T10:55:30.705Z,79.74
2023-10-26T10:58:04.113Z,78.94
2023-10-26T11:00:46.638Z,79.03
2023-10-26T11:03:19.002Z,79.81
2023-10-26T11:05:45.686Z,79.37
2023-10-26T11:08:12.257Z,79.90
2023-10-26T11:10:39.496Z,79.39
2023-10-26T11:13:06.435Z,78.92
2023-10-26T11:15:37.985Z,78.47
2023-10-26T11:18:06.349Z,77.16
2023-10-26T11:20:34.955Z,78.46
2023-10-26T11:23:01.807Z,77.94
2023-10-26T11:25:30.585Z,76.58
2023-10-26T11:27:57.503Z,77.01
2023-10-26T11:30:24.160Z,76.85
2023-10-26T11:32:50.807Z,76.42
2023-10-26T11:35:17.585Z,77.71
2023-10-26T11:37:49.933Z,77.06
2023-10-26T11:40:17.254Z,77.58
2023-10-26T11:42:54.706Z,77.50
2023-10-26T11:45:23.142Z,77.83
2023-10-26T11:47:55.972Z,78.24
2023-10-26T11:50:33.382Z,77.85
2023-10-26T11:53:04.350Z,77.00
2023-10-26T11:55:33.949Z,76.28
2023-10-26T11:58:02.255Z,76.18
2023-10-26T12:00:31.072Z,76.87
2023-10-26T12:02:59.092Z,77.09
2023-10-26T12:05:27.198Z,78.31
2023-10-26T12:07:55.048Z,77.03
2023-10-26T12:10:23.570Z,77.39
2023-10-26T12:12:53.320Z,77.71
2023-10-26T12:15:21.228Z,77.23
2023-10-26T12:17:49.208Z,77.56
2023-10-26T12:20:16.498Z,78.21
2023-10-26T12:22:43.053Z,77.82
2023-10-26T12:25:11.799Z,77.23
2023-10-26T12:28:21.296Z,76.84
2023-10-26T12:30:25.944Z,76.90
2023-10-26T12:32:52.497Z,78.15
2023-10-26T12:35:18.948Z,77.65
2023-10-26T12:37:45.360Z,76.96
2023-10-26T12:40:11.886Z,77.98
2023-10-26T12:42:38.376Z,78.23
2023-10-26T12:45:05.598Z,77.15
2023-10-26T12:47:32.029Z,77.61
2023-10-26T12:49:58.501Z,78.20
2023-10-26T12:52:25.012Z,77.74
2023-10-26T12:54:51.527Z,77.21
2023-10-26T12:57:18.495Z,76.83
2023-10-26T12:59:44.962Z,77.75
2023-10-26T13:02:11.379Z,78.01
2023-10-26T13:04:37.868Z,78.29
2023-10-26T13:07:04.859Z,77.07
2023-10-26T13:09:31.464Z,76.96
2023-10-26T13:11:58.023Z,77.67
2023-10-26T13:14:24.457Z,77.36
2023-10-26T13:16:57.755Z,76.97
2023-10-26T13:19:26.131Z,76.48
2023-10-26T13:21:52.873Z,75.97
2023-10-26T13:24:19.444Z,76.49
2023-10-26T13:26:46.267Z,75.92
2023-10-26T13:29:12.782Z,75.92
2023-10-26T13:31:39.281Z,76.66
2023-10-26T13:34:08.446Z,77.10
2023-10-26T13:36:35.441Z,76.61
2023-10-26T13:39:04.851Z,76.55
2023-10-26T13:41:31.312Z,77.54
2023-10-26T13:43:59.732Z,76.61
2023-10-26T13:46:26.287Z,75.94
2023-10-26T13:48:52.780Z,75.32
2023-10-26T13:51:19.527Z,75.94
2023-10-26T13:53:46.255Z,76.26
2023-10-26T13:56:13.136Z,75.61
2023-10-26T13:58:39.555Z,77.47
2023-10-26T14:01:15.551Z,76.64
2023-10-26T14:03:42.149Z,76.10
2023-10-26T14:06:09.011Z,76.55
2023-10-26T14:08:35.997Z,77.00
2023-10-26T14:11:02.487Z,76.79
2023-10-26T14:13:29.630Z,75.63
2023-10-26T14:15:56.272Z,75.75
2023-10-26T14:18:22.974Z,75.19
2023-10-26T14:20:49.473Z,75.22
2023-10-26T14:23:16.218Z,76.97
2023-10-26T14:25:43.206Z,75.90
2023-10-26T14:28:09.639Z,76.28
2023-10-26T14:30:36.103Z,75.58
2023-10-26T14:33:02.638Z,76.29
2023-10-26T14:35:30.022Z,74.99
2023-10-26T14:37:59.773Z,75.76
2023-10-26T14:40:29.607Z,75.28
2023-10-26T14:42:56.659Z,75.22
2023-10-26T14:45:25.109Z,75.44
2023-10-26T14:47:52.070Z,75.59
2023-10-26T14:50:18.534Z,75.12
2023-10-26T14:52:45.098Z,75.39
2023-10-26T14:55:11.724Z,76.17
2023-10-26T14:57:38.229Z,76.36
2023-10-26T15:00:05.046Z,76.35
2023-10-26T15:02:31.747Z,75.94
2023-10-26T15:04:58.305Z,76.16
2023-10-26T15:07:24.776Z,75.33
2023-10-26T15:10:20.214Z,74.83
2023-10-26T15:12:39.267Z,76.85
2023-10-26T15:15:06.323Z,77.00
2023-10-26T15:17:32.792Z,76.21
2023-10-26T15:19:59.299Z,76.86
2023-10-26T15:22:26.857Z,76.95
2023-10-26T15:24:53.481Z,76.37
2023-10-26T15:27:20.501Z,76.32
2023-10-26T15:29:46.964Z,76.34
2023-10-26T15:32:13.468Z,75.57
2023-10-26T15:34:40.020Z,77.04
2023-10-26T15:37:06.598Z,76.61
2023-10-26T15:39:34.417Z,76.73
2023-10-26T15:42:00.916Z,76.10
2023-10-26T15:44:27.386Z,75.05
2023-10-26T15:46:53.882Z,75.75
2023-10-26T15:49:34.843Z,75.98
2023-10-26T15:52:03.761Z,76.05
2023-10-26T15:54:30.536Z,75.82
2023-10-26T15:56:57.339Z,75.01
2023-10-26T15:59:25.608Z,75.36
2023-10-26T16:01:52.370Z,74.75
2023-10-26T16:04:18.909Z,74.94
2023-10-26T16:06:47.639Z,76.02
2023-10-26T16:09:14.406Z,76.02
2023-10-26T16:11:40.955Z,75.17
2023-10-26T16:14:07.391Z,76.81
2023-10-26T16:16:34.357Z,77.14
2023-10-26T16:19:01.110Z,76.77
2023-10-26T16:21:27.601Z,77.07
2023-10-26T16:23:54.041Z,76.16
2023-10-26T16:26:20.741Z,75.48
2023-10-26T16:28:50.382Z,76.18
2023-10-26T16:31:17.330Z,75.58
2023-10-26T16:33:45.630Z,75.96
2023-10-26T16:36:12.186Z,77.36
2023-10-26T16:38:38.636Z,77.13
2023-10-26T16:41:05.151Z,76.65
2023-10-26T16:43:31.589Z,77.34
2023-10-26T16:45:59.749Z,76.22
2023-10-26T16:48:27.645Z,75.47
2023-10-26T16:50:57.379Z,75.97
2023-10-26T16:53:31.742Z,74.79
2023-10-26T16:55:59.514Z,75.06
2023-10-26T16:58:26.044Z,75.74
2023-10-26T17:00:52.544Z,75.65
2023-10-26T17:03:19.042Z,75.62
2023-10-26T17:05:45.493Z,75.62
2023-10-26T17:08:12.630Z,75.52
2023-10-26T17:10:40.318Z,75.79
2023-10-26T17:13:09.809Z,75.75
2023-10-26T17:15:36.494Z,76.99
2023-10-26T17:18:03.899Z,77.60
2023-10-26T17:20:30.501Z,78.01
2023-10-26T17:22:56.930Z,77.03
2023-10-26T17:25:23.585Z,77.41
2023-10-26T17:27:51.790Z,76.30
2023-10-26T17:30:18.819Z,75.89
2023-10-26T17:32:47.823Z,76.59
2023-10-26T17:35:14.312Z,76.76
2023-10-26T17:37:40.782Z,76.12
2023-10-26T17:40:07.557Z,76.76
2023-10-26T17:42:34.208Z,76.34
2023-10-26T17:45:00.693Z,76.45
2023-10-26T17:47:27.549Z,76.72
2023-10-26T17:49:54.450Z,77.37
2023-10-26T17:52:23.047Z,76.34
2023-10-26T17:54:49.758Z,76.98
2023-10-26T17:57:16.222Z,77.07
2023-10-26T17:59:42.818Z,76.93
2023-10-26T18:02:09.409Z,77.55
2023-10-26T18:04:35.852Z,78.04
2023-10-26T18:07:02.345Z,77.94
2023-10-26T18:09:30.284Z,77.50
2023-10-26T18:11:58.207Z,77.85
2023-10-26T18:14:24.856Z,77.23
2023-10-26T18:16:55.385Z,76.81
2023-10-26T18:19:22.621Z,76.87
2023-10-26T18:21:49.203Z,75.56
2023-10-26T18:24:16.534Z,76.77
2023-10-26T18:26:42.981Z,77.23
2023-10-26T18:29:09.466Z,77.73
2023-10-26T18:31:36.006Z,77.55
2023-10-26T18:34:02.514Z,77.08
2023-10-26T18:36:28.993Z,78.25
2023-10-26T18:38:55.429Z,77.68
2023-10-26T18:41:25.860Z,78.89
2023-10-26T18:43:52.876Z,78.76
2023-10-26T18:46:22.659Z,79.04
2023-10-26T18:48:49.249Z,79.58
2023-10-26T18:51:17.803Z,79.47
2023-10-26T18:53:48.578Z,78.44
2023-10-26T18:56:16.181Z,79.35
2023-10-26T18:58:43.277Z,78.91
2023-10-26T19:01:09.974Z,78.73
2023-10-26T19:03:43.147Z,78.38
2023-10-26T19:06:20.137Z,78.20
2023-10-26T19:08:46.614Z,79.10
2023-10-26T19:11:13.393Z,76.88
2023-10-26T19:13:40.238Z,78.07
2023-10-26T19:16:07.251Z,78.96
2023-10-26T19:18:34.633Z,77.58
2023-10-26T19:21:01.422Z,77.47
2023-10-26T19:23:27.911Z,77.85
2023-10-26T19:25:54.742Z,79.14
2023-10-26T19:28:22.530Z,79.61
2023-10-26T19:30:50.687Z,78.63
2023-10-26T19:33:18.009Z,79.85
2023-10-26T19:35:44.434Z,79.26
2023-10-26T19:38:11.182Z,80.00
2023-10-26T19:40:37.652Z,80.58
2023-10-26T19:43:04.675Z,80.04
2023-10-26T19:45:31.302Z,80.13
2023-10-26T19:47:59.669Z,80.19
2023-10-26T19:50:26.190Z,79.92
2023-10-26T19:52:52.675Z,79.00
2023-10-26T19:55:19.233Z,78.87
2023-10-26T19:57:45.876Z,79.57
2023-10-26T20:00:16.865Z,80.18
2023-10-26T20:02:44.625Z,79.27
2023-10-26T20:05:12.682Z,79.30
2023-10-26T20:07:39.594Z,78.91
2023-10-26T20:10:06.432Z,79.46
2023-10-26T20:15:13.365Z,79.20
2023-10-26T20:17:39.958Z,78.16
2023-10-26T20:20:14.821Z,77.72
2023-10-26T20:22:43.435Z,77.70
2023-10-26T20:25:10.972Z,78.52
2023-10-26T20:27:38.949Z,78.28
2023-10-26T20:30:06.609Z,78.49
2023-10-26T20:32:35.427Z,78.28
2023-10-26T20:35:02.317Z,77.60
2023-10-26T20:37:29.192Z,77.97
2023-10-26T20:39:55.879Z,77.30
2023-10-26T20:42:22.547Z,76.75
2023-10-26T20:44:49.051Z,76.34
2023-10-26T20:47:15.519Z,76.59
2023-10-26T20:49:42.117Z,77.25
2023-10-26T20:52:15.923Z,76.95
2023-10-26T20:54:42.393Z,77.70
2023-10-26T20:57:08.881Z,78.34
2023-10-26T20:59:40.318Z,76.97
2023-10-26T21:02:06.889Z,77.12
2023-10-26T21:04:33.413Z,77.03
2023-10-26T21:07:00.225Z,76.39
2023-10-26T21:09:26.839Z,78.41
2023-10-26T21:11:53.327Z,77.99
2023-10-26T21:14:19.803Z,77.73
2023-10-26T21:16:46.310Z,77.47
2023-10-26T21:19:12.959Z,77.77
2023-10-26T21:21:39.386Z,76.73
2023-10-26T21:24:06.596Z,77.32
2023-10-26T21:26:33.180Z,77.55
2023-10-26T21:29:00.174Z,77.54
2023-10-26T21:31:26.852Z,76.10
2023-10-26T21:33:54.957Z,76.13
2023-10-26T21:36:21.711Z,77.01
2023-10-26T21:38:51.218Z,77.66
2023-10-26T21:41:17.676Z,76.94
2023-10-26T21:43:44.619Z,76.22
2023-10-26T21:46:11.390Z,77.15
2023-10-26T21:48:37.903Z,75.44
2023-10-26T21:51:08.902Z,75.85
2023-10-26T21:53:35.339Z,75.78
2023-10-26T21:56:04.111Z,76.28
2023-10-26T21:58:30.754Z,76.31
2023-10-26T22:00:57.275Z,75.66
2023-10-26T22:03:23.804Z,75.07
2023-10-26T22:05:50.693Z,75.22
2023-10-26T22:08:17.180Z,76.53
2023-10-26T22:10:43.718Z,76.05
2023-10-26T22:13:10.367Z,76.72
2023-10-26T22:15:36.870Z,76.64
2023-10-26T22:18:03.513Z,76.44
2023-10-26T22:20:30.080Z,76.55
2023-10-26T22:22:56.931Z,76.79
2023-10-26T22:25:23.524Z,77.46
2023-10-26T22:27:50.093Z,77.19
2023-10-26T22:30:16.577Z,77.14
2023-10-26T22:32:44.443Z,76.97
2023-10-26T22:35:11.784Z,76.79
2023-10-26T22:37:39.310Z,76.92
2023-10-26T22:40:08.307Z,77.35
2023-10-26T22:42:35.201Z,76.86
2023-10-26T22:45:02.602Z,78.34
2023-10-26T22:47:32.078Z,77.31
2023-10-26T22:49:58.678Z,77.20
2023-10-26T22:52:25.227Z,77.13
2023-10-26T22:54:52.689Z,77.42
2023-10-26T22:57:19.112Z,77.35
2023-10-26T22:59:49.069Z,77.70
2023-10-26T23:02:15.620Z,77.55
2023-10-26T23:04:43.164Z,78.15
2023-10-26T23:07:09.915Z,78.80
2023-10-26T23:09:36.747Z,77.67
2023-10-26T23:12:03.766Z,78.19
2023-10-26T23:14:31.556Z,77.81
2023-10-26T23:16:58.495Z,77.82
2023-10-26T23:19:25.377Z,77.17
2023-10-26T23:21:52.180Z,77.60
2023-10-26T23:24:18.764Z,78.19
2023-10-26T23:26:45.234Z,78.81
2023-10-26T23:29:11.745Z,79.52
2023-10-26T23:31:38.203Z,79.03
2023-10-26T23:34:05.152Z,78.81
2023-10-26T23:36:31.637Z,78.13
2023-10-26T23:38:58.334Z,78.40
2023-10-26T23:41:25.289Z,79.20
2023-10-26T23:43:55.395Z,78.80
2023-10-26T23:46:21.857Z,79.18
2023-10-26T23:48:48.391Z,79.14
2023-10-26T23:51:15.207Z,79.16
2023-10-26T23:53:41.645Z,79.03
2023-10-26T23:56:10.826Z,80.11
2023-10-26T23:58:37.319Z,80.86
